sensor_id;sensor_type;location;lat;lon;timestamp;P1;durP1;ratioP1;P2;durP2;ratioP2
40591;SDS011;26301;42.832;23.918;2023-01-26T00:01:09;15.50;;;8.80;;
40591;SDS011;26301;42.832;23.918;2023-01-26T00:03:41;14.93;;;8.43;;
40591;SDS011;26301;42.832;23.918;2023-01-26T00:06:08;15.77;;;8.40;;
40591;SDS011;26301;42.832;23.918;2023-01-26T00:08:39;15.27;;;8.70;;
40591;SDS011;26301;42.832;23.918;2023-01-26T00:11:07;20.50;;;9.37;;
40591;SDS011;26301;42.832;23.918;2023-01-26T00:13:35;15.97;;;9.40;;
40591;SDS011;26301;42.832;23.918;2023-01-26T00:16:02;15.13;;;9.43;;
40591;SDS011;26301;42.832;23.918;2023-01-26T00:18:29;16.07;;;9.67;;
40591;SDS011;26301;42.832;23.918;2023-01-26T00:20:59;15.60;;;9.27;;
40591;SDS011;26301;42.832;23.918;2023-01-26T00:23:26;16.00;;;9.50;;
40591;SDS011;26301;42.832;23.918;2023-01-26T00:25:53;17.40;;;8.63;;
40591;SDS011;26301;42.832;23.918;2023-01-26T00:28:19;13.80;;;8.87;;
40591;SDS011;26301;42.832;23.918;2023-01-26T00:30:44;15.17;;;8.57;;
40591;SDS011;26301;42.832;23.918;2023-01-26T00:33:10;13.43;;;7.83;;
40591;SDS011;26301;42.832;23.918;2023-01-26T00:35:36;14.70;;;8.30;;
40591;SDS011;26301;42.832;23.918;2023-01-26T00:38:01;14.47;;;8.23;;
40591;SDS011;26301;42.832;23.918;2023-01-26T00:40:29;15.67;;;9.33;;
40591;SDS011;26301;42.832;23.918;2023-01-26T00:42:55;12.93;;;8.23;;
40591;SDS011;26301;42.832;23.918;2023-01-26T00:45:21;16.77;;;7.90;;
40591;SDS011;26301;42.832;23.918;2023-01-26T00:47:46;12.03;;;7.97;;
40591;SDS011;26301;42.832;23.918;2023-01-26T00:50:12;17.37;;;8.87;;
40591;SDS011;26301;42.832;23.918;2023-01-26T00:52:38;16.63;;;8.07;;
40591;SDS011;26301;42.832;23.918;2023-01-26T00:55:04;19.27;;;11.40;;
40591;SDS011;26301;42.832;23.918;2023-01-26T00:57:29;22.87;;;13.83;;
40591;SDS011;26301;42.832;23.918;2023-01-26T00:59:55;16.53;;;9.60;;
40591;SDS011;26301;42.832;23.918;2023-01-26T01:02:21;16.07;;;8.73;;
40591;SDS011;26301;42.832;23.918;2023-01-26T01:04:47;11.07;;;7.47;;
40591;SDS011;26301;42.832;23.918;2023-01-26T01:07:12;13.83;;;7.60;;
40591;SDS011;26301;42.832;23.918;2023-01-26T01:09:38;14.27;;;8.30;;
40591;SDS011;26301;42.832;23.918;2023-01-26T01:12:03;17.70;;;9.37;;
40591;SDS011;26301;42.832;23.918;2023-01-26T01:14:29;15.70;;;9.27;;
40591;SDS011;26301;42.832;23.918;2023-01-26T01:16:55;19.30;;;10.43;;
40591;SDS011;26301;42.832;23.918;2023-01-26T01:19:20;15.93;;;8.73;;
40591;SDS011;26301;42.832;23.918;2023-01-26T01:21:46;15.43;;;7.87;;
40591;SDS011;26301;42.832;23.918;2023-01-26T01:24:12;17.03;;;10.37;;
40591;SDS011;26301;42.832;23.918;2023-01-26T01:26:38;15.90;;;8.47;;
40591;SDS011;26301;42.832;23.918;2023-01-26T01:29:04;18.53;;;9.60;;
40591;SDS011;26301;42.832;23.918;2023-01-26T01:31:30;15.67;;;10.10;;
40591;SDS011;26301;42.832;23.918;2023-01-26T01:33:56;19.43;;;10.43;;
40591;SDS011;26301;42.832;23.918;2023-01-26T01:36:22;18.73;;;8.50;;
40591;SDS011;26301;42.832;23.918;2023-01-26T01:38:48;17.63;;;9.20;;
40591;SDS011;26301;42.832;23.918;2023-01-26T01:41:15;16.10;;;8.73;;
40591;SDS011;26301;42.832;23.918;2023-01-26T01:43:43;18.87;;;9.47;;
40591;SDS011;26301;42.832;23.918;2023-01-26T01:48:50;15.20;;;8.33;;
40591;SDS011;26301;42.832;23.918;2023-01-26T01:51:25;19.33;;;10.83;;
40591;SDS011;26301;42.832;23.918;2023-01-26T01:54:06;22.63;;;10.47;;
40591;SDS011;26301;42.832;23.918;2023-01-26T01:56:36;22.07;;;11.03;;
40591;SDS011;26301;42.832;23.918;2023-01-26T01:59:05;18.07;;;9.83;;
40591;SDS011;26301;42.832;23.918;2023-01-26T02:01:34;20.77;;;11.37;;
40591;SDS011;26301;42.832;23.918;2023-01-26T02:04:00;22.43;;;11.83;;
40591;SDS011;26301;42.832;23.918;2023-01-26T02:09:08;21.00;;;11.17;;
40591;SDS011;26301;42.832;23.918;2023-01-26T02:11:54;21.17;;;10.07;;
40591;SDS011;26301;42.832;23.918;2023-01-26T02:14:22;23.70;;;11.63;;
40591;SDS011;26301;42.832;23.918;2023-01-26T02:16:56;21.87;;;10.40;;
40591;SDS011;26301;42.832;23.918;2023-01-26T02:19:26;20.43;;;10.67;;
40591;SDS011;26301;42.832;23.918;2023-01-26T02:28:17;21.10;;;10.13;;
40591;SDS011;26301;42.832;23.918;2023-01-26T02:30:45;23.07;;;10.90;;
40591;SDS011;26301;42.832;23.918;2023-01-26T02:33:16;20.80;;;10.60;;
40591;SDS011;26301;42.832;23.918;2023-01-26T02:35:45;20.30;;;10.20;;
40591;SDS011;26301;42.832;23.918;2023-01-26T02:38:11;19.53;;;10.47;;
40591;SDS011;26301;42.832;23.918;2023-01-26T02:40:39;22.30;;;10.63;;
40591;SDS011;26301;42.832;23.918;2023-01-26T02:43:12;22.30;;;10.90;;
40591;SDS011;26301;42.832;23.918;2023-01-26T02:45:38;20.43;;;10.13;;
40591;SDS011;26301;42.832;23.918;2023-01-26T02:48:05;28.40;;;11.33;;
40591;SDS011;26301;42.832;23.918;2023-01-26T02:50:32;47.10;;;11.30;;
40591;SDS011;26301;42.832;23.918;2023-01-26T02:52:58;148.43;;;14.67;;
40591;SDS011;26301;42.832;23.918;2023-01-26T02:55:24;44.50;;;11.77;;
40591;SDS011;26301;42.832;23.918;2023-01-26T02:57:53;30.13;;;12.03;;
40591;SDS011;26301;42.832;23.918;2023-01-26T03:00:24;27.23;;;11.90;;
40591;SDS011;26301;42.832;23.918;2023-01-26T03:02:52;24.53;;;11.50;;
40591;SDS011;26301;42.832;23.918;2023-01-26T03:05:20;23.20;;;11.37;;
40591;SDS011;26301;42.832;23.918;2023-01-26T03:07:46;30.47;;;10.07;;
40591;SDS011;26301;42.832;23.918;2023-01-26T03:10:11;25.13;;;11.97;;
40591;SDS011;26301;42.832;23.918;2023-01-26T03:12:37;25.03;;;12.17;;
40591;SDS011;26301;42.832;23.918;2023-01-26T03:15:03;33.63;;;11.50;;
40591;SDS011;26301;42.832;23.918;2023-01-26T03:17:48;29.47;;;12.10;;
40591;SDS011;26301;42.832;23.918;2023-01-26T03:20:14;27.77;;;11.40;;
40591;SDS011;26301;42.832;23.918;2023-01-26T03:22:58;26.87;;;11.13;;
40591;SDS011;26301;42.832;23.918;2023-01-26T03:25:42;26.20;;;11.67;;
40591;SDS011;26301;42.832;23.918;2023-01-26T03:28:43;27.33;;;12.23;;
40591;SDS011;26301;42.832;23.918;2023-01-26T03:31:08;24.00;;;11.27;;
40591;SDS011;26301;42.832;23.918;2023-01-26T03:33:34;21.93;;;10.53;;
40591;SDS011;26301;42.832;23.918;2023-01-26T03:35:59;27.50;;;11.47;;
40591;SDS011;26301;42.832;23.918;2023-01-26T03:38:25;27.87;;;11.80;;
40591;SDS011;26301;42.832;23.918;2023-01-26T03:40:50;26.57;;;12.37;;
40591;SDS011;26301;42.832;23.918;2023-01-26T03:43:34;47.13;;;12.00;;
40591;SDS011;26301;42.832;23.918;2023-01-26T03:46:18;28.13;;;11.03;;
40591;SDS011;26301;42.832;23.918;2023-01-26T03:49:02;24.03;;;11.10;;
40591;SDS011;26301;42.832;23.918;2023-01-26T03:51:46;23.03;;;11.17;;
40591;SDS011;26301;42.832;23.918;2023-01-26T03:54:30;27.10;;;12.87;;
40591;SDS011;26301;42.832;23.918;2023-01-26T03:57:14;39.27;;;11.67;;
40591;SDS011;26301;42.832;23.918;2023-01-26T03:59:40;26.43;;;12.00;;
40591;SDS011;26301;42.832;23.918;2023-01-26T04:02:07;19.27;;;10.10;;
40591;SDS011;26301;42.832;23.918;2023-01-26T04:04:52;19.27;;;10.23;;
40591;SDS011;26301;42.832;23.918;2023-01-26T04:07:37;22.40;;;10.60;;
40591;SDS011;26301;42.832;23.918;2023-01-26T04:10:22;17.67;;;10.07;;
40591;SDS011;26301;42.832;23.918;2023-01-26T04:12:48;24.03;;;10.40;;
40591;SDS011;26301;42.832;23.918;2023-01-26T04:15:32;20.43;;;10.17;;
40591;SDS011;26301;42.832;23.918;2023-01-26T04:18:16;20.27;;;10.20;;
40591;SDS011;26301;42.832;23.918;2023-01-26T04:21:01;18.77;;;10.00;;
40591;SDS011;26301;42.832;23.918;2023-01-26T04:23:47;20.93;;;10.50;;
40591;SDS011;26301;42.832;23.918;2023-01-26T04:26:14;18.50;;;10.80;;
40591;SDS011;26301;42.832;23.918;2023-01-26T04:28:40;20.43;;;9.93;;
40591;SDS011;26301;42.832;23.918;2023-01-26T04:31:06;20.17;;;10.23;;
40591;SDS011;26301;42.832;23.918;2023-01-26T04:33:32;21.03;;;10.90;;
40591;SDS011;26301;42.832;23.918;2023-01-26T04:36:04;19.93;;;9.83;;
40591;SDS011;26301;42.832;23.918;2023-01-26T04:38:30;18.13;;;10.17;;
40591;SDS011;26301;42.832;23.918;2023-01-26T04:40:56;19.60;;;10.57;;
40591;SDS011;26301;42.832;23.918;2023-01-26T04:43:22;21.90;;;10.73;;
40591;SDS011;26301;42.832;23.918;2023-01-26T04:48:42;20.13;;;10.07;;
40591;SDS011;26301;42.832;23.918;2023-01-26T04:51:10;18.60;;;10.57;;
40591;SDS011;26301;42.832;23.918;2023-01-26T04:53:38;20.50;;;10.70;;
40591;SDS011;26301;42.832;23.918;2023-01-26T04:56:03;22.07;;;10.77;;
40591;SDS011;26301;42.832;23.918;2023-01-26T04:58:31;23.43;;;11.87;;
40591;SDS011;26301;42.832;23.918;2023-01-26T05:00:57;20.13;;;10.67;;
40591;SDS011;26301;42.832;23.918;2023-01-26T05:03:23;21.10;;;10.60;;
40591;SDS011;26301;42.832;23.918;2023-01-26T05:05:50;19.03;;;10.50;;
40591;SDS011;26301;42.832;23.918;2023-01-26T05:08:18;38.40;;;26.93;;
40591;SDS011;26301;42.832;23.918;2023-01-26T05:10:44;17.40;;;10.13;;
40591;SDS011;26301;42.832;23.918;2023-01-26T05:13:11;21.50;;;10.43;;
40591;SDS011;26301;42.832;23.918;2023-01-26T05:15:37;19.83;;;11.30;;
40591;SDS011;26301;42.832;23.918;2023-01-26T05:18:03;19.00;;;10.20;;
40591;SDS011;26301;42.832;23.918;2023-01-26T05:20:30;17.43;;;9.53;;
40591;SDS011;26301;42.832;23.918;2023-01-26T05:22:56;19.80;;;11.43;;
40591;SDS011;26301;42.832;23.918;2023-01-26T05:25:21;18.10;;;9.57;;
40591;SDS011;26301;42.832;23.918;2023-01-26T05:27:47;20.60;;;11.07;;
40591;SDS011;26301;42.832;23.918;2023-01-26T05:30:14;11.70;;;7.50;;
40591;SDS011;26301;42.832;23.918;2023-01-26T05:32:40;16.17;;;8.73;;
40591;SDS011;26301;42.832;23.918;2023-01-26T05:35:06;14.50;;;7.97;;
40591;SDS011;26301;42.832;23.918;2023-01-26T05:37:32;19.13;;;9.63;;
40591;SDS011;26301;42.832;23.918;2023-01-26T05:39:58;21.93;;;11.90;;
40591;SDS011;26301;42.832;23.918;2023-01-26T05:42:24;20.67;;;10.87;;
40591;SDS011;26301;42.832;23.918;2023-01-26T05:44:50;17.83;;;9.13;;
40591;SDS011;26301;42.832;23.918;2023-01-26T05:47:16;19.50;;;9.23;;
40591;SDS011;26301;42.832;23.918;2023-01-26T05:49:42;15.77;;;9.13;;
40591;SDS011;26301;42.832;23.918;2023-01-26T05:52:16;16.80;;;10.43;;
40591;SDS011;26301;42.832;23.918;2023-01-26T05:54:43;20.33;;;10.40;;
40591;SDS011;26301;42.832;23.918;2023-01-26T05:57:09;16.77;;;9.50;;
40591;SDS011;26301;42.832;23.918;2023-01-26T05:59:34;18.90;;;9.60;;
40591;SDS011;26301;42.832;23.918;2023-01-26T06:02:00;15.40;;;8.97;;
40591;SDS011;26301;42.832;23.918;2023-01-26T06:04:26;13.23;;;8.77;;
40591;SDS011;26301;42.832;23.918;2023-01-26T06:06:55;17.63;;;10.00;;
40591;SDS011;26301;42.832;23.918;2023-01-26T06:09:22;19.03;;;10.50;;
40591;SDS011;26301;42.832;23.918;2023-01-26T06:11:48;21.57;;;10.60;;
40591;SDS011;26301;42.832;23.918;2023-01-26T06:14:16;16.67;;;8.20;;
40591;SDS011;26301;42.832;23.918;2023-01-26T06:16:41;15.53;;;9.07;;
40591;SDS011;26301;42.832;23.918;2023-01-26T06:19:07;18.87;;;9.73;;
40591;SDS011;26301;42.832;23.918;2023-01-26T06:21:34;15.03;;;9.20;;
40591;SDS011;26301;42.832;23.918;2023-01-26T06:23:59;13.17;;;7.33;;
40591;SDS011;26301;42.832;23.918;2023-01-26T06:26:25;12.60;;;7.10;;
40591;SDS011;26301;42.832;23.918;2023-01-26T06:28:51;13.93;;;7.63;;
40591;SDS011;26301;42.832;23.918;2023-01-26T06:31:18;16.07;;;8.97;;
40591;SDS011;26301;42.832;23.918;2023-01-26T06:33:44;13.23;;;8.17;;
40591;SDS011;26301;42.832;23.918;2023-01-26T06:36:10;15.63;;;8.57;;
40591;SDS011;26301;42.832;23.918;2023-01-26T06:38:38;14.87;;;8.03;;
40591;SDS011;26301;42.832;23.918;2023-01-26T06:41:13;13.03;;;7.97;;
40591;SDS011;26301;42.832;23.918;2023-01-26T06:43:43;13.17;;;7.60;;
40591;SDS011;26301;42.832;23.918;2023-01-26T06:46:10;14.37;;;8.30;;
40591;SDS011;26301;42.832;23.918;2023-01-26T06:48:37;11.37;;;7.27;;
40591;SDS011;26301;42.832;23.918;2023-01-26T06:54:01;16.83;;;9.37;;
40591;SDS011;26301;42.832;23.918;2023-01-26T06:56:28;18.37;;;8.80;;
40591;SDS011;26301;42.832;23.918;2023-01-26T06:58:54;15.20;;;9.27;;
40591;SDS011;26301;42.832;23.918;2023-01-26T07:01:21;18.17;;;9.93;;
40591;SDS011;26301;42.832;23.918;2023-01-26T07:03:49;13.57;;;7.93;;
40591;SDS011;26301;42.832;23.918;2023-01-26T07:06:18;15.37;;;9.03;;
40591;SDS011;26301;42.832;23.918;2023-01-26T07:08:44;16.37;;;9.27;;
40591;SDS011;26301;42.832;23.918;2023-01-26T07:11:10;18.80;;;10.47;;
40591;SDS011;26301;42.832;23.918;2023-01-26T07:13:39;18.70;;;10.97;;
40591;SDS011;26301;42.832;23.918;2023-01-26T07:16:10;17.20;;;10.13;;
40591;SDS011;26301;42.832;23.918;2023-01-26T07:18:54;15.40;;;9.67;;
40591;SDS011;26301;42.832;23.918;2023-01-26T07:21:21;19.17;;;11.17;;
40591;SDS011;26301;42.832;23.918;2023-01-26T07:23:49;12.50;;;8.10;;
40591;SDS011;26301;42.832;23.918;2023-01-26T07:26:19;16.63;;;8.77;;
40591;SDS011;26301;42.832;23.918;2023-01-26T07:28:45;14.03;;;8.47;;
40591;SDS011;26301;42.832;23.918;2023-01-26T07:31:10;15.27;;;8.50;;
40591;SDS011;26301;42.832;23.918;2023-01-26T07:33:36;14.17;;;8.50;;
40591;SDS011;26301;42.832;23.918;2023-01-26T07:36:02;16.07;;;9.10;;
40591;SDS011;26301;42.832;23.918;2023-01-26T07:38:45;17.60;;;10.30;;
40591;SDS011;26301;42.832;23.918;2023-01-26T07:41:13;16.60;;;10.23;;
40591;SDS011;26301;42.832;23.918;2023-01-26T07:43:39;16.63;;;9.63;;
40591;SDS011;26301;42.832;23.918;2023-01-26T07:46:06;16.73;;;10.13;;
40591;SDS011;26301;42.832;23.918;2023-01-26T07:48:32;18.43;;;11.73;;
40591;SDS011;26301;42.832;23.918;2023-01-26T07:50:59;18.53;;;11.00;;
40591;SDS011;26301;42.832;23.918;2023-01-26T07:53:26;17.30;;;10.13;;
40591;SDS011;26301;42.832;23.918;2023-01-26T07:56:06;16.77;;;10.47;;
40591;SDS011;26301;42.832;23.918;2023-01-26T07:58:40;15.93;;;10.00;;
40591;SDS011;26301;42.832;23.918;2023-01-26T08:01:11;13.70;;;9.17;;
40591;SDS011;26301;42.832;23.918;2023-01-26T08:03:40;17.47;;;9.40;;
40591;SDS011;26301;42.832;23.918;2023-01-26T08:06:06;18.13;;;10.57;;
40591;SDS011;26301;42.832;23.918;2023-01-26T08:08:33;16.10;;;9.53;;
40591;SDS011;26301;42.832;23.918;2023-01-26T08:10:59;15.50;;;9.70;;
40591;SDS011;26301;42.832;23.918;2023-01-26T08:13:29;14.33;;;10.00;;
40591;SDS011;26301;42.832;23.918;2023-01-26T08:18:48;14.77;;;8.83;;
40591;SDS011;26301;42.832;23.918;2023-01-26T08:21:14;18.17;;;10.77;;
40591;SDS011;26301;42.832;23.918;2023-01-26T08:23:41;17.37;;;8.60;;
40591;SDS011;26301;42.832;23.918;2023-01-26T08:26:09;16.47;;;8.47;;
40591;SDS011;26301;42.832;23.918;2023-01-26T08:28:38;14.30;;;8.30;;
40591;SDS011;26301;42.832;23.918;2023-01-26T08:31:08;13.63;;;8.30;;
40591;SDS011;26301;42.832;23.918;2023-01-26T08:33:40;14.70;;;8.50;;
40591;SDS011;26301;42.832;23.918;2023-01-26T08:36:08;12.57;;;8.40;;
40591;SDS011;26301;42.832;23.918;2023-01-26T08:38:38;11.98;;;7.72;;
40591;SDS011;26301;42.832;23.918;2023-01-26T08:41:04;15.50;;;9.33;;
40591;SDS011;26301;42.832;23.918;2023-01-26T08:43:31;13.60;;;7.67;;
40591;SDS011;26301;42.832;23.918;2023-01-26T08:45:59;11.40;;;7.23;;
40591;SDS011;26301;42.832;23.918;2023-01-26T08:48:24;10.87;;;7.03;;
40591;SDS011;26301;42.832;23.918;2023-01-26T08:50:58;13.73;;;7.43;;
40591;SDS011;26301;42.832;23.918;2023-01-26T08:53:24;11.50;;;7.13;;
40591;SDS011;26301;42.832;23.918;2023-01-26T08:55:51;11.07;;;6.87;;
40591;SDS011;26301;42.832;23.918;2023-01-26T08:58:17;9.67;;;6.67;;
40591;SDS011;26301;42.832;23.918;2023-01-26T09:00:42;9.87;;;6.43;;
40591;SDS011;26301;42.832;23.918;2023-01-26T09:03:08;11.20;;;5.90;;
40591;SDS011;26301;42.832;23.918;2023-01-26T09:05:35;11.77;;;6.97;;
40591;SDS011;26301;42.832;23.918;2023-01-26T09:08:02;13.23;;;7.20;;
40591;SDS011;26301;42.832;23.918;2023-01-26T09:10:29;13.30;;;7.60;;
40591;SDS011;26301;42.832;23.918;2023-01-26T09:12:56;12.03;;;7.23;;
40591;SDS011;26301;42.832;23.918;2023-01-26T09:15:22;13.70;;;7.83;;
40591;SDS011;26301;42.832;23.918;2023-01-26T09:17:48;11.93;;;6.73;;
40591;SDS011;26301;42.832;23.918;2023-01-26T09:20:14;11.13;;;7.07;;
40591;SDS011;26301;42.832;23.918;2023-01-26T09:22:41;11.57;;;7.57;;
40591;SDS011;26301;42.832;23.918;2023-01-26T09:25:07;10.83;;;6.97;;
40591;SDS011;26301;42.832;23.918;2023-01-26T09:27:32;12.40;;;8.07;;
40591;SDS011;26301;42.832;23.918;2023-01-26T09:29:58;13.57;;;8.13;;
40591;SDS011;26301;42.832;23.918;2023-01-26T09:32:24;11.77;;;6.83;;
40591;SDS011;26301;42.832;23.918;2023-01-26T09:34:49;10.87;;;7.13;;
40591;SDS011;26301;42.832;23.918;2023-01-26T09:37:15;10.60;;;6.63;;
40591;SDS011;26301;42.832;23.918;2023-01-26T09:39:41;12.63;;;7.47;;
40591;SDS011;26301;42.832;23.918;2023-01-26T09:45:01;12.57;;;8.57;;
40591;SDS011;26301;42.832;23.918;2023-01-26T09:50:39;20.27;;;10.95;;
40591;SDS011;26301;42.832;23.918;2023-01-26T09:53:14;21.87;;;12.67;;
40591;SDS011;26301;42.832;23.918;2023-01-26T09:55:44;24.20;;;13.03;;
40591;SDS011;26301;42.832;23.918;2023-01-26T09:58:17;20.60;;;10.43;;
40591;SDS011;26301;42.832;23.918;2023-01-26T10:00:55;12.10;;;7.97;;
40591;SDS011;26301;42.832;23.918;2023-01-26T10:03:27;16.67;;;8.37;;
40591;SDS011;26301;42.832;23.918;2023-01-26T10:08:45;26.57;;;13.57;;
40591;SDS011;26301;42.832;23.918;2023-01-26T10:13:55;10.87;;;6.07;;
40591;SDS011;26301;42.832;23.918;2023-01-26T10:16:34;12.73;;;8.20;;
40591;SDS011;26301;42.832;23.918;2023-01-26T10:19:03;10.87;;;6.60;;
40591;SDS011;26301;42.832;23.918;2023-01-26T10:21:37;8.77;;;6.27;;
40591;SDS011;26301;42.832;23.918;2023-01-26T10:24:07;9.53;;;5.83;;
40591;SDS011;26301;42.832;23.918;2023-01-26T10:26:35;9.87;;;5.97;;
40591;SDS011;26301;42.832;23.918;2023-01-26T10:29:01;11.63;;;7.03;;
40591;SDS011;26301;42.832;23.918;2023-01-26T10:31:31;9.83;;;6.23;;
40591;SDS011;26301;42.832;23.918;2023-01-26T10:33:59;9.60;;;6.43;;
40591;SDS011;26301;42.832;23.918;2023-01-26T10:36:33;7.43;;;5.27;;
40591;SDS011;26301;42.832;23.918;2023-01-26T10:39:05;7.57;;;5.37;;
40591;SDS011;26301;42.832;23.918;2023-01-26T10:41:32;8.77;;;5.13;;
40591;SDS011;26301;42.832;23.918;2023-01-26T10:46:39;12.00;;;7.50;;
40591;SDS011;26301;42.832;23.918;2023-01-26T10:51:32;12.17;;;7.80;;
40591;SDS011;26301;42.832;23.918;2023-01-26T10:56:59;11.20;;;6.23;;
40591;SDS011;26301;42.832;23.918;2023-01-26T10:59:32;12.33;;;7.63;;
40591;SDS011;26301;42.832;23.918;2023-01-26T11:04:41;10.70;;;7.00;;
40591;SDS011;26301;42.832;23.918;2023-01-26T11:07:46;9.33;;;6.23;;
40591;SDS011;26301;42.832;23.918;2023-01-26T11:12:41;10.77;;;6.70;;
40591;SDS011;26301;42.832;23.918;2023-01-26T11:15:18;11.20;;;7.20;;
40591;SDS011;26301;42.832;23.918;2023-01-26T11:23:03;11.43;;;7.13;;
40591;SDS011;26301;42.832;23.918;2023-01-26T11:28:08;12.23;;;8.03;;
40591;SDS011;26301;42.832;23.918;2023-01-26T11:30:45;12.63;;;7.10;;
40591;SDS011;26301;42.832;23.918;2023-01-26T11:36:15;11.63;;;7.10;;
40591;SDS011;26301;42.832;23.918;2023-01-26T11:39:27;12.17;;;7.13;;
40591;SDS011;26301;42.832;23.918;2023-01-26T11:47:56;12.53;;;7.63;;
40591;SDS011;26301;42.832;23.918;2023-01-26T11:50:26;13.17;;;8.43;;
40591;SDS011;26301;42.832;23.918;2023-01-26T11:58:34;10.97;;;7.13;;
40591;SDS011;26301;42.832;23.918;2023-01-26T12:01:17;12.37;;;7.70;;
40591;SDS011;26301;42.832;23.918;2023-01-26T12:03:53;11.43;;;7.43;;
40591;SDS011;26301;42.832;23.918;2023-01-26T12:11:18;18.83;;;11.50;;
40591;SDS011;26301;42.832;23.918;2023-01-26T12:16:58;13.83;;;8.50;;
40591;SDS011;26301;42.832;23.918;2023-01-26T12:22:17;12.40;;;7.37;;
40591;SDS011;26301;42.832;23.918;2023-01-26T12:24:53;14.03;;;8.67;;
40591;SDS011;26301;42.832;23.918;2023-01-26T12:27:24;11.97;;;6.90;;
40591;SDS011;26301;42.832;23.918;2023-01-26T12:32:50;11.07;;;6.37;;
40591;SDS011;26301;42.832;23.918;2023-01-26T12:35:18;13.43;;;7.80;;
40591;SDS011;26301;42.832;23.918;2023-01-26T12:38:06;11.33;;;7.27;;
40591;SDS011;26301;42.832;23.918;2023-01-26T12:43:26;12.67;;;7.50;;
40591;SDS011;26301;42.832;23.918;2023-01-26T12:46:09;10.13;;;5.87;;
40591;SDS011;26301;42.832;23.918;2023-01-26T12:48:41;8.77;;;5.93;;
40591;SDS011;26301;42.832;23.918;2023-01-26T12:51:13;9.60;;;6.63;;
40591;SDS011;26301;42.832;23.918;2023-01-26T12:53:54;9.13;;;6.20;;
40591;SDS011;26301;42.832;23.918;2023-01-26T12:56:29;10.93;;;6.37;;
40591;SDS011;26301;42.832;23.918;2023-01-26T12:59:05;10.37;;;6.60;;
40591;SDS011;26301;42.832;23.918;2023-01-26T13:01:42;9.47;;;6.30;;
40591;SDS011;26301;42.832;23.918;2023-01-26T13:04:09;10.13;;;6.33;;
40591;SDS011;26301;42.832;23.918;2023-01-26T13:06:37;10.63;;;6.50;;
40591;SDS011;26301;42.832;23.918;2023-01-26T13:09:24;10.67;;;6.80;;
40591;SDS011;26301;42.832;23.918;2023-01-26T13:11:57;10.43;;;6.20;;
40591;SDS011;26301;42.832;23.918;2023-01-26T13:16:55;12.33;;;7.60;;
40591;SDS011;26301;42.832;23.918;2023-01-26T13:22:30;8.87;;;5.87;;
40591;SDS011;26301;42.832;23.918;2023-01-26T13:29:57;12.63;;;7.53;;
40591;SDS011;26301;42.832;23.918;2023-01-26T13:34:55;9.43;;;6.23;;
40591;SDS011;26301;42.832;23.918;2023-01-26T13:37:23;9.27;;;5.63;;
40591;SDS011;26301;42.832;23.918;2023-01-26T13:39:53;9.50;;;6.00;;
40591;SDS011;26301;42.832;23.918;2023-01-26T13:42:23;7.60;;;5.57;;
40591;SDS011;26301;42.832;23.918;2023-01-26T13:44:55;8.43;;;5.50;;
40591;SDS011;26301;42.832;23.918;2023-01-26T13:47:36;9.67;;;5.93;;
40591;SDS011;26301;42.832;23.918;2023-01-26T13:50:38;8.83;;;5.57;;
40591;SDS011;26301;42.832;23.918;2023-01-26T13:53:23;8.17;;;5.63;;
40591;SDS011;26301;42.832;23.918;2023-01-26T13:55:55;9.23;;;5.57;;
40591;SDS011;26301;42.832;23.918;2023-01-26T13:58:23;9.70;;;5.80;;
40591;SDS011;26301;42.832;23.918;2023-01-26T14:01:05;8.20;;;6.00;;
40591;SDS011;26301;42.832;23.918;2023-01-26T14:03:35;8.50;;;5.93;;
40591;SDS011;26301;42.832;23.918;2023-01-26T14:06:12;9.20;;;5.73;;
40591;SDS011;26301;42.832;23.918;2023-01-26T14:08:51;8.83;;;5.37;;
40591;SDS011;26301;42.832;23.918;2023-01-26T14:11:20;8.03;;;5.63;;
40591;SDS011;26301;42.832;23.918;2023-01-26T14:13:52;10.33;;;5.83;;
40591;SDS011;26301;42.832;23.918;2023-01-26T14:16:23;8.30;;;5.20;;
40591;SDS011;26301;42.832;23.918;2023-01-26T14:21:52;10.80;;;6.27;;
40591;SDS011;26301;42.832;23.918;2023-01-26T14:26:57;8.67;;;5.10;;
40591;SDS011;26301;42.832;23.918;2023-01-26T14:29:24;8.97;;;6.40;;
40591;SDS011;26301;42.832;23.918;2023-01-26T14:31:52;11.57;;;7.47;;
40591;SDS011;26301;42.832;23.918;2023-01-26T14:34:26;13.03;;;7.60;;
40591;SDS011;26301;42.832;23.918;2023-01-26T14:37:04;15.95;;;10.13;;
40591;SDS011;26301;42.832;23.918;2023-01-26T14:39:41;16.10;;;9.83;;
40591;SDS011;26301;42.832;23.918;2023-01-26T14:42:18;16.33;;;10.10;;
40591;SDS011;26301;42.832;23.918;2023-01-26T14:44:46;10.30;;;7.17;;
40591;SDS011;26301;42.832;23.918;2023-01-26T14:47:19;10.83;;;6.83;;
40591;SDS011;26301;42.832;23.918;2023-01-26T14:50:26;8.67;;;5.67;;
40591;SDS011;26301;42.832;23.918;2023-01-26T14:52:51;10.47;;;7.10;;
40591;SDS011;26301;42.832;23.918;2023-01-26T14:55:21;7.87;;;5.30;;
40591;SDS011;26301;42.832;23.918;2023-01-26T14:57:52;9.07;;;5.90;;
40591;SDS011;26301;42.832;23.918;2023-01-26T15:00:34;7.97;;;5.70;;
40591;SDS011;26301;42.832;23.918;2023-01-26T15:03:06;9.97;;;6.27;;
40591;SDS011;26301;42.832;23.918;2023-01-26T15:05:38;8.27;;;5.87;;
40591;SDS011;26301;42.832;23.918;2023-01-26T15:08:20;9.00;;;6.00;;
40591;SDS011;26301;42.832;23.918;2023-01-26T15:10:55;11.73;;;6.97;;
40591;SDS011;26301;42.832;23.918;2023-01-26T15:13:43;11.37;;;7.27;;
40591;SDS011;26301;42.832;23.918;2023-01-26T15:16:13;10.53;;;6.77;;
40591;SDS011;26301;42.832;23.918;2023-01-26T15:18:41;11.10;;;6.80;;
40591;SDS011;26301;42.832;23.918;2023-01-26T15:23:44;13.40;;;6.00;;
40591;SDS011;26301;42.832;23.918;2023-01-26T15:26:33;10.70;;;6.43;;
40591;SDS011;26301;42.832;23.918;2023-01-26T15:29:02;10.50;;;5.43;;
40591;SDS011;26301;42.832;23.918;2023-01-26T15:31:33;13.30;;;7.80;;
40591;SDS011;26301;42.832;23.918;2023-01-26T15:34:02;11.02;;;7.10;;
40591;SDS011;26301;42.832;23.918;2023-01-26T15:36:33;10.37;;;6.83;;
40591;SDS011;26301;42.832;23.918;2023-01-26T15:39:20;13.00;;;7.67;;
40591;SDS011;26301;42.832;23.918;2023-01-26T15:41:45;10.53;;;7.43;;
40591;SDS011;26301;42.832;23.918;2023-01-26T15:44:25;11.53;;;7.90;;
40591;SDS011;26301;42.832;23.918;2023-01-26T15:46:51;12.73;;;8.30;;
40591;SDS011;26301;42.832;23.918;2023-01-26T15:49:19;12.77;;;8.03;;
40591;SDS011;26301;42.832;23.918;2023-01-26T15:51:46;12.03;;;7.43;;
40591;SDS011;26301;42.832;23.918;2023-01-26T15:54:12;15.33;;;8.33;;
40591;SDS011;26301;42.832;23.918;2023-01-26T15:56:37;13.97;;;7.43;;
40591;SDS011;26301;42.832;23.918;2023-01-26T15:59:03;14.60;;;8.13;;
40591;SDS011;26301;42.832;23.918;2023-01-26T16:01:29;11.27;;;7.37;;
40591;SDS011;26301;42.832;23.918;2023-01-26T16:03:54;12.30;;;7.67;;
40591;SDS011;26301;42.832;23.918;2023-01-26T16:06:21;11.37;;;7.30;;
40591;SDS011;26301;42.832;23.918;2023-01-26T16:08:50;9.00;;;6.50;;
40591;SDS011;26301;42.832;23.918;2023-01-26T16:11:17;11.00;;;6.47;;
40591;SDS011;26301;42.832;23.918;2023-01-26T16:13:44;8.17;;;5.50;;
40591;SDS011;26301;42.832;23.918;2023-01-26T16:16:10;7.30;;;4.70;;
40591;SDS011;26301;42.832;23.918;2023-01-26T16:18:37;10.37;;;5.80;;
40591;SDS011;26301;42.832;23.918;2023-01-26T16:21:14;9.67;;;5.83;;